Time;durP1;ratioP1;P1;durP2;ratioP2;P2;SDS_P1;SDS_P2;PMS_P1;PMS_P2;Temp;Humidity;BMP_temperature;BMP_pressure;BME280_temperature;BME280_humidity;BME280_pressure;Samples;Min_cycle;Max_cycle;Signal;HPM_P1;HPM_P2
2023/05/05 00:01:27;;;;;;;10.50;5.82;;;;;;;15.11;46.50;96741.97;6245532;23;20484;-76
2023/05/05 00:03:54;;;;;;;7.03;5.13;;;;;;;15.10;46.63;96742.97;6245729;23;20331;-76
2023/05/05 00:06:22;;;;;;;8.40;5.40;;;;;;;15.07;46.52;96738.13;6246203;23;20024;-76
2023/05/05 00:08:50;;;;;;;8.70;5.18;;;;;;;15.04;47.51;96730.66;6245582;23;20020;-76
2023/05/05 00:11:17;;;;;;;7.68;4.80;;;;;;;15.02;47.78;96740.56;6245580;23;20016;-76
2023/05/05 00:13:47;;;;;;;8.48;5.38;;;;;;;15.00;46.88;96734.72;6246225;23;20024;-76
2023/05/05 00:16:14;;;;;;;7.25;5.38;;;;;;;14.99;46.83;96738.34;6245749;23;20024;-76
2023/05/05 00:18:42;;;;;;;7.20;5.18;;;;;;;14.97;47.71;96733.31;6245479;23;20031;-76
2023/05/05 00:21:09;;;;;;;6.50;4.97;;;;;;;15.01;50.00;96736.34;6245603;23;20016;-76
2023/05/05 00:23:37;;;;;;;7.93;5.20;;;;;;;15.02;47.59;96735.31;6245369;23;20024;-76
2023/05/05 00:26:05;;;;;;;7.95;4.95;;;;;;;15.01;50.42;96741.59;6245828;23;20357;-76
2023/05/05 00:28:32;;;;;;;6.28;4.90;;;;;;;15.01;48.38;96744.22;6245317;23;20110;-76
2023/05/05 00:31:01;;;;;;;8.70;5.57;;;;;;;15.01;48.87;96734.50;6245148;23;20098;-76
2023/05/05 00:33:29;;;;;;;7.93;5.45;;;;;;;15.01;49.95;96736.34;6245323;23;20020;-76
2023/05/05 00:35:56;;;;;;;6.45;5.82;;;;;;;14.99;48.85;96728.66;6245140;23;20579;-76
2023/05/05 00:38:24;;;;;;;9.43;6.30;;;;;;;14.97;47.85;96729.88;6245764;23;20024;-76
2023/05/05 00:40:52;;;;;;;7.28;4.95;;;;;;;14.94;47.46;96727.69;6245887;23;20024;-76
2023/05/05 00:43:19;;;;;;;6.53;5.60;;;;;;;14.92;49.73;96727.06;6245465;23;20055;-76
2023/05/05 00:45:47;;;;;;;11.60;6.13;;;;;;;14.90;48.75;96729.09;6245754;23;20020;-76
2023/05/05 00:48:17;;;;;;;7.35;5.22;;;;;;;14.84;47.48;96728.09;6245497;23;20095;-76
2023/05/05 00:50:45;;;;;;;11.73;5.75;;;;;;;14.79;47.46;96725.28;6245775;23;20020;-77
2023/05/05 00:53:12;;;;;;;6.75;5.50;;;;;;;14.76;49.12;96726.50;6244820;23;20024;-76
2023/05/05 00:55:40;;;;;;;8.55;5.28;;;;;;;14.74;48.79;96727.72;6245131;23;20497;-76
2023/05/05 00:58:09;;;;;;;7.07;6.03;;;;;;;14.72;47.88;96727.91;6245333;23;20147;-76
2023/05/05 01:00:36;;;;;;;8.45;6.10;;;;;;;14.72;48.00;96724.50;6245447;23;20048;-76
2023/05/05 01:03:04;;;;;;;6.72;5.28;;;;;;;14.67;48.04;96721.66;6245411;23;20027;-76
2023/05/05 01:05:42;;;;;;;10.27;5.72;;;;;;;14.62;48.14;96722.25;6244820;23;20024;-76
2023/05/05 01:08:26;;;;;;;9.70;6.40;;;;;;;14.58;48.26;96723.69;6245193;23;20024;-76
2023/05/05 01:10:58;;;;;;;8.35;5.53;;;;;;;14.54;49.35;96719.81;6244662;23;20116;-76
2023/05/05 01:13:37;;;;;;;7.55;5.75;;;;;;;14.54;48.51;96720.66;6245101;23;20024;-76
2023/05/05 01:16:11;;;;;;;7.97;5.90;;;;;;;14.50;48.64;96723.88;6246183;23;20020;-78
2023/05/05 01:18:46;;;;;;;9.07;5.35;;;;;;;14.47;48.60;96725.06;6245362;23;20492;-76
2023/05/05 01:21:20;;;;;;;7.63;5.90;;;;;;;14.46;48.71;96725.28;6245395;23;20093;-76
2023/05/05 01:24:19;;;;;;;7.03;5.78;;;;;;;14.40;48.86;96725.06;6244988;23;20087;-76
2023/05/05 01:26:58;;;;;;;8.70;6.03;;;;;;;14.38;49.19;96726.28;6214007;23;20059;-77
2023/05/05 01:29:50;;;;;;;15.35;6.18;;;;;;;14.35;49.16;96735.38;6255058;23;20540;-76
2023/05/05 01:32:23;;;;;;;8.63;6.20;;;;;;;14.36;51.97;96731.72;6245912;23;20091;-76
2023/05/05 01:34:56;;;;;;;8.55;6.30;;;;;;;14.35;49.71;96735.38;6245201;23;20335;-76
2023/05/05 01:37:27;;;;;;;13.68;5.80;;;;;;;14.30;49.91;96734.34;6244919;23;20024;-76
2023/05/05 01:39:58;;;;;;;10.20;5.72;;;;;;;14.30;50.59;96734.34;6245393;23;20094;-76
2023/05/05 01:42:27;;;;;;;7.93;6.15;;;;;;;14.32;50.08;96735.78;6245115;23;20016;-76
2023/05/05 01:44:57;;;;;;;8.07;5.45;;;;;;;14.27;50.34;96743.44;6245080;23;20102;-76
2023/05/05 01:47:27;;;;;;;9.18;6.18;;;;;;;14.21;50.46;96739.00;6245158;23;20361;-76
2023/05/05 01:49:55;;;;;;;8.43;5.63;;;;;;;14.18;50.50;96729.72;6244632;23;20477;-76
2023/05/05 01:52:24;;;;;;;7.97;6.10;;;;;;;14.15;50.78;96738.00;6244906;23;20358;-76
2023/05/05 01:54:52;;;;;;;6.90;5.90;;;;;;;14.10;50.98;96736.97;6244809;23;20027;-76
2023/05/05 01:57:21;;;;;;;9.93;5.90;;;;;;;14.02;51.33;96730.91;6244989;23;20094;-76
2023/05/05 01:59:51;;;;;;;8.82;6.18;;;;;;;13.94;51.48;96741.59;6244998;23;20026;-76
2023/05/05 02:02:21;;;;;;;7.10;5.88;;;;;;;13.87;51.75;96732.13;6244928;23;20393;-76
2023/05/05 02:04:53;;;;;;;8.40;6.05;;;;;;;13.79;52.44;96739.13;6244729;23;20106;-76
2023/05/05 02:07:22;;;;;;;7.18;5.90;;;;;;;13.74;52.32;96738.13;6245002;23;20055;-76
2023/05/05 02:09:51;;;;;;;8.48;6.00;;;;;;;13.68;52.74;96738.91;6244739;23;20020;-76
2023/05/05 02:12:20;;;;;;;8.77;6.07;;;;;;;13.64;53.01;96735.88;6244729;23;20099;-76
2023/05/05 02:14:49;;;;;;;8.93;6.65;;;;;;;13.64;53.31;96733.25;6244333;23;20107;-76
2023/05/05 02:17:18;;;;;;;8.30;6.00;;;;;;;13.64;53.50;96741.13;6244744;23;20027;-76
2023/05/05 02:19:51;;;;;;;7.40;5.65;;;;;;;13.66;53.97;96735.69;6244188;23;20493;-76
2023/05/05 02:22:19;;;;;;;;;;;;;;;13.69;53.84;96732.69;6245340;23;20017;-77
2023/05/05 02:24:47;;;;;;;9.40;6.32;;;;;;;13.62;53.78;96732.63;6244496;23;19915;-76
2023/05/05 02:27:17;;;;;;;8.88;6.13;;;;;;;13.55;53.84;96735.25;6246170;23;20032;-77
2023/05/05 02:29:48;;;;;;;6.82;6.15;;;;;;;13.47;54.56;96732.81;6248530;23;20051;-77
2023/05/05 02:32:31;;;;;;;8.57;5.80;;;;;;;13.45;54.87;96736.66;6247371;23;20024;-76
2023/05/05 02:35:04;;;;;;;8.13;6.15;;;;;;;13.38;55.09;96737.44;6244417;23;20031;-76
2023/05/05 02:37:35;;;;;;;7.88;6.30;;;;;;;13.33;55.47;96734.56;6244845;23;20023;-76
2023/05/05 02:40:04;;;;;;;8.88;6.05;;;;;;;13.32;55.67;96740.03;6244341;23;20489;-76
2023/05/05 02:42:36;;;;;;;8.15;5.72;;;;;;;13.29;56.40;96741.19;6244717;23;20016;-76
2023/05/05 02:45:10;;;;;;;10.82;5.80;;;;;;;13.25;56.08;96732.09;6244479;23;20020;-76
2023/05/05 02:47:38;;;;;;;8.70;6.45;;;;;;;13.23;56.16;96730.66;6245016;23;20024;-76
2023/05/05 02:50:07;;;;;;;8.60;6.30;;;;;;;13.16;56.48;96728.84;6243090;23;20435;-76
2023/05/05 02:52:37;;;;;;;8.48;5.80;;;;;;;13.13;56.37;96728.41;6243561;23;20020;-76
2023/05/05 02:55:06;;;;;;;7.00;5.80;;;;;;;13.11;58.47;96723.34;6243881;23;20028;-76
2023/05/05 02:57:38;;;;;;;7.20;5.72;;;;;;;13.10;57.16;96727.00;6243933;23;20035;-76
2023/05/05 03:00:10;;;;;;;8.70;6.07;;;;;;;13.07;56.78;96721.31;6245698;23;20042;-76
2023/05/05 03:02:44;;;;;;;7.60;5.60;;;;;;;13.01;57.13;96729.94;6246516;23;20349;-76
2023/05/05 03:05:19;;;;;;;19.23;6.38;;;;;;;12.94;57.12;96716.81;6246204;23;20043;-76
2023/05/05 03:07:55;;;;;;;6.47;5.28;;;;;;;12.86;57.55;96717.81;6246892;23;20099;-76
2023/05/05 03:10:28;;;;;;;10.10;6.65;;;;;;;12.84;57.78;96721.63;6246312;23;20059;-76
2023/05/05 03:12:59;;;;;;;8.45;6.63;;;;;;;12.77;57.97;96714.53;6245959;23;20048;-76
2023/05/05 03:15:31;;;;;;;11.20;6.63;;;;;;;12.73;58.38;96715.13;6246233;23;20024;-76
2023/05/05 03:18:00;;;;;;;8.37;5.40;;;;;;;12.71;58.27;96717.13;6246591;23;20020;-77
2023/05/05 03:20:29;;;;;;;7.72;5.88;;;;;;;12.69;58.59;96712.06;6246378;23;20244;-76
2023/05/05 03:23:00;;;;;;;8.38;6.35;;;;;;;12.65;58.82;96718.69;6246562;23;20026;-76
2023/05/05 03:25:42;;;;;;;6.80;5.95;;;;;;;12.62;59.42;96718.28;6246203;23;20020;-76
2023/05/05 03:28:09;;;;;;;6.03;5.32;;;;;;;12.62;59.48;96718.28;6246705;23;20020;-76
2023/05/05 03:30:37;;;;;;;7.68;6.10;;;;;;;12.63;59.52;96720.69;6246757;23;20082;-76
2023/05/05 03:33:04;;;;;;;8.25;6.35;;;;;;;12.67;59.34;96719.28;6246050;23;20027;-76
2023/05/05 03:35:32;;;;;;;6.18;5.40;;;;;;;12.71;60.30;96723.16;6245974;23;20024;-76
2023/05/05 03:38:01;;;;;;;6.40;5.80;;;;;;;12.80;62.63;96723.00;6246291;23;20051;-77
2023/05/05 03:40:29;;;;;;;8.80;6.15;;;;;;;12.82;60.29;96740.13;6244533;23;20023;-76
2023/05/05 03:43:10;;;;;;;6.22;5.60;;;;;;;12.86;61.22;96741.38;6247063;23;20020;-76
2023/05/05 03:45:37;;;;;;;13.90;6.55;;;;;;;12.90;59.63;96739.16;6246082;23;20362;-76
2023/05/05 03:48:08;;;;;;;8.02;5.75;;;;;;;12.88;59.17;96744.59;6252013;23;20024;-76
2023/05/05 03:50:36;;;;;;;7.85;6.07;;;;;;;12.83;58.92;96751.41;6263609;23;20082;-76
2023/05/05 03:53:05;;;;;;;11.68;5.93;;;;;;;12.82;59.41;96752.41;6265116;23;20043;-76
2023/05/05 03:55:32;;;;;;;7.10;5.55;;;;;;;12.84;58.93;96753.03;6270278;23;20008;-76
2023/05/05 03:58:00;;;;;;;8.73;6.13;;;;;;;12.80;58.68;96751.81;6268956;23;20031;-76
2023/05/05 04:00:28;;;;;;;11.07;5.55;;;;;;;12.72;59.08;96761.41;6266024;23;20051;-76
2023/05/05 04:02:55;;;;;;;7.55;6.00;;;;;;;12.73;61.50;96760.41;6256028;23;20028;-76
2023/05/05 04:05:24;;;;;;;10.23;5.90;;;;;;;12.79;60.25;96766.72;6246864;23;20028;-76
2023/05/05 04:07:51;;;;;;;9.88;6.00;;;;;;;12.79;59.19;96766.72;6246833;23;20102;-75
2023/05/05 05:20:43;;;;;;;12.87;7.90;;;;;;;12.57;64.28;96792.91;6215074;22;20258;-77
2023/05/05 05:23:10;;;;;;;13.60;8.60;;;;;;;12.66;63.84;96793.59;6213107;23;20234;-78
2023/05/05 05:25:38;;;;;;;13.38;8.15;;;;;;;12.75;63.90;96789.03;6215173;23;20021;-78
2023/05/05 05:28:06;;;;;;;10.98;7.47;;;;;;;12.87;64.74;96789.28;6214889;23;20474;-78
2023/05/05 05:30:37;;;;;;;12.32;7.82;;;;;;;13.01;64.93;96788.38;6241900;23;20393;-78
2023/05/05 05:33:05;;;;;;;10.32;6.82;;;;;;;13.15;64.40;96790.06;6244952;23;20406;-78
2023/05/05 05:35:32;;;;;;;8.93;6.10;;;;;;;13.28;64.18;96785.91;6244878;23;20031;-78
2023/05/05 05:38:01;;;;;;;10.43;6.60;;;;;;;13.43;64.38;96797.09;6245192;23;20020;-78
2023/05/05 05:40:29;;;;;;;8.35;5.93;;;;;;;13.56;64.15;96786.66;6244830;23;20020;-78
2023/05/05 05:42:56;;;;;;;9.25;6.90;;;;;;;13.70;64.66;96795.38;6244422;23;20484;-78
2023/05/05 05:45:24;;;;;;;11.82;6.82;;;;;;;13.84;64.49;96790.19;6244932;23;20023;-79
2023/05/05 05:47:51;;;;;;;13.45;6.40;;;;;;;13.97;64.20;96788.41;6244995;23;20024;-79
2023/05/05 05:50:19;;;;;;;12.85;7.45;;;;;;;14.09;63.89;96787.84;6245574;23;20020;-79
2023/05/05 05:52:47;;;;;;;26.98;10.25;;;;;;;14.17;63.21;96798.94;6245657;23;20051;-79
2023/05/05 05:55:16;;;;;;;18.88;7.88;;;;;;;14.28;65.29;96797.56;6245177;23;20020;-79
2023/05/05 05:57:44;;;;;;;28.58;11.52;;;;;;;14.38;63.18;96797.94;6244506;23;20023;-78
2023/05/05 06:00:13;;;;;;;17.65;10.63;;;;;;;14.46;63.48;96804.03;6243718;23;20470;-79
2023/05/05 06:02:40;;;;;;;24.45;11.38;;;;;;;14.56;65.59;96810.53;6244898;23;20012;-79
2023/05/05 06:05:09;;;;;;;23.38;12.32;;;;;;;14.67;63.70;96809.13;6242501;23;20465;-78
2023/05/05 06:07:36;;;;;;;20.23;11.07;;;;;;;14.79;63.51;96807.47;6242896;23;20100;-79
2023/05/05 06:10:05;;;;;;;14.93;10.30;;;;;;;14.94;64.89;96811.72;6242593;23;20098;-79
2023/05/05 06:12:54;;;;;;;13.05;9.90;;;;;;;15.09;65.13;96809.69;6242335;23;20202;-79
2023/05/05 06:15:21;;;;;;;11.25;9.15;;;;;;;15.22;66.02;96814.91;6243191;23;20024;-79
2023/05/05 06:17:49;;;;;;;14.00;8.63;;;;;;;15.30;62.89;96808.59;6243001;23;20103;-79
2023/05/05 06:20:17;;;;;;;14.88;8.38;;;;;;;15.38;62.15;96810.22;6244131;23;20498;-79
2023/05/05 06:22:45;;;;;;;16.27;7.70;;;;;;;15.49;61.55;96806.94;6244737;23;20390;-79
2023/05/05 06:25:12;;;;;;;14.30;6.75;;;;;;;15.63;61.81;96812.94;6245747;23;20354;-78
2023/05/05 06:27:40;;;;;;;12.98;6.70;;;;;;;15.77;61.40;96811.13;6245156;23;20024;-79
2023/05/05 06:30:10;;;;;;;11.85;6.47;;;;;;;15.93;61.20;96810.63;6245176;23;20027;-79
2023/05/05 06:32:37;;;;;;;9.85;5.82;;;;;;;16.10;60.73;96807.50;6244218;23;20023;-79
2023/05/05 06:35:06;;;;;;;7.28;6.35;;;;;;;16.28;60.59;96812.84;6247338;23;20408;-79
2023/05/05 06:37:34;;;;;;;8.00;5.10;;;;;;;16.42;60.73;96813.56;6247876;23;20095;-79
2023/05/05 06:40:02;;;;;;;9.23;5.90;;;;;;;16.56;61.17;96809.81;6246638;23;20020;-79
2023/05/05 06:42:31;;;;;;;7.72;4.80;;;;;;;16.70;60.28;96815.78;6246656;23;20024;-79
2023/05/05 06:44:58;;;;;;;6.18;4.25;;;;;;;16.82;61.06;96814.09;6246579;23;20023;-79
2023/05/05 06:47:27;;;;;;;4.15;3.72;;;;;;;16.96;60.53;96814.00;6246465;23;20016;-79
2023/05/05 06:49:55;;;;;;;7.38;3.75;;;;;;;17.10;59.64;96815.50;6246491;23;20031;-79
2023/05/05 06:52:23;;;;;;;6.38;3.95;;;;;;;17.24;60.14;96826.69;6246047;23;20027;-79
2023/05/05 06:54:50;;;;;;;7.40;3.33;;;;;;;17.35;59.57;96827.81;6246491;23;20035;-79
2023/05/05 06:57:18;;;;;;;6.35;3.35;;;;;;;17.46;58.79;96819.16;6247781;23;20484;-79
2023/05/05 06:59:45;;;;;;;6.40;3.70;;;;;;;17.61;58.56;96822.22;6246093;23;20024;-78
2023/05/05 07:02:13;;;;;;;9.32;3.92;;;;;;;17.74;58.36;96826.56;6245983;23;20474;-78
2023/05/05 07:04:42;;;;;;;9.50;3.67;;;;;;;17.85;59.08;96822.41;6246119;23;20020;-78
2023/05/05 07:07:10;;;;;;;3.50;3.03;;;;;;;17.95;58.12;96821.84;6246095;23;20095;-78
2023/05/05 07:09:37;;;;;;;3.15;2.92;;;;;;;18.06;57.63;96832.47;6247020;23;20020;-78
2023/05/05 07:12:05;;;;;;;6.35;2.78;;;;;;;18.18;57.02;96831.72;6246523;23;20017;-78
2023/05/05 07:14:33;;;;;;;4.03;3.08;;;;;;;18.29;57.22;96834.38;6246163;23;20026;-78
2023/05/05 07:17:00;;;;;;;3.92;2.90;;;;;;;18.41;56.89;96836.25;6246467;23;20358;-78
2023/05/05 07:19:28;;;;;;;5.15;3.17;;;;;;;18.53;56.49;96835.25;6245581;23;20020;-78
2023/05/05 07:21:57;;;;;;;5.18;3.22;;;;;;;18.65;55.65;96834.47;6246086;23;20026;-79
2023/05/05 07:24:24;;;;;;;3.50;3.20;;;;;;;18.72;55.09;96830.69;6246349;23;20099;-79
2023/05/05 07:26:52;;;;;;;3.75;2.95;;;;;;;18.81;55.25;96838.34;6246298;23;20031;-78
2023/05/05 07:29:20;;;;;;;4.03;3.25;;;;;;;18.87;54.82;96830.28;6246236;23;20406;-78
2023/05/05 07:31:47;;;;;;;3.28;2.85;;;;;;;18.97;55.05;96839.50;6247624;23;20044;-78
2023/05/05 07:34:15;;;;;;;3.17;2.88;;;;;;;19.06;54.04;96832.81;6246202;23;20043;-78
2023/05/05 07:36:42;;;;;;;7.18;2.78;;;;;;;19.14;54.28;96830.63;6246821;23;20052;-78
2023/05/05 07:39:14;;;;;;;4.40;3.53;;;;;;;19.27;53.90;96829.59;6247285;23;20103;-78
2023/05/05 07:41:41;;;;;;;5.30;3.33;;;;;;;19.41;54.26;96824.06;6246524;23;20410;-79
2023/05/05 07:44:09;;;;;;;3.88;3.22;;;;;;;19.54;53.34;96834.38;6246652;23;20020;-78
2023/05/05 07:46:36;;;;;;;2.95;2.70;;;;;;;19.66;52.88;96832.53;6246978;23;20020;-79
2023/05/05 07:49:04;;;;;;;3.97;3.13;;;;;;;19.80;52.76;96832.28;6247425;23;20020;-79
2023/05/05 07:51:31;;;;;;;4.25;2.58;;;;;;;19.91;52.22;96834.09;6247486;23;20044;-78
2023/05/05 07:54:01;;;;;;;7.88;4.10;;;;;;;20.00;52.20;96832.69;6245649;23;20414;-77
2023/05/05 07:56:30;;;;;;;8.65;5.20;;;;;;;20.10;52.08;96832.09;6246187;23;20406;-77
2023/05/05 07:58:58;;;;;;;12.05;5.80;;;;;;;20.20;51.64;96836.75;6245651;23;20097;-78
2023/05/05 08:01:25;;;;;;;8.13;5.47;;;;;;;20.24;51.22;96843.97;6246136;23;20024;-78
2023/05/05 08:03:53;;;;;;;3.63;3.17;;;;;;;20.33;51.15;96839.09;6245516;23;20569;-78
2023/05/05 08:06:22;;;;;;;4.32;2.85;;;;;;;20.42;51.98;96840.31;6246215;23;20027;-77
2023/05/05 08:08:49;;;;;;;3.85;2.90;;;;;;;20.51;50.73;96848.69;6246007;23;20365;-78
2023/05/05 08:11:17;;;;;;;7.03;3.78;;;;;;;20.63;50.71;96840.72;6245617;23;20024;-78
2023/05/05 08:13:46;;;;;;;5.85;3.65;;;;;;;20.74;50.51;96839.84;6245498;23;20031;-78
2023/05/05 08:16:14;;;;;;;3.10;2.78;;;;;;;20.86;50.88;96840.56;6245449;23;20361;-78
2023/05/05 08:18:42;;;;;;;5.28;3.45;;;;;;;20.96;49.38;96840.72;6245404;23;20512;-78
2023/05/05 08:21:11;;;;;;;3.95;3.08;;;;;;;21.07;49.30;96835.56;6245745;23;20016;-78
2023/05/05 08:23:39;;;;;;;4.55;3.28;;;;;;;21.12;48.78;96835.63;6246157;23;20086;-79
2023/05/05 08:26:08;;;;;;;4.00;2.90;;;;;;;21.22;49.63;96835.00;6246092;23;20055;-79
2023/05/05 08:28:36;;;;;;;3.45;2.90;;;;;;;21.32;48.89;96838.59;6245880;23;20020;-78
2023/05/05 08:31:05;;;;;;;3.78;3.03;;;;;;;21.46;48.21;96831.09;6246281;23;20462;-78
2023/05/05 08:33:33;;;;;;;2.70;2.50;;;;;;;21.56;48.18;96833.91;6245312;23;20362;-78
2023/05/05 08:36:00;;;;;;;4.03;2.70;;;;;;;21.67;48.38;96837.50;6245115;23;20048;-78
2023/05/05 08:38:28;;;;;;;5.82;3.53;;;;;;;21.75;47.40;96834.38;6248031;23;20496;-79
2023/05/05 08:40:56;;;;;;;4.13;3.13;;;;;;;21.79;47.31;96832.03;6249499;23;20024;-78
2023/05/05 08:43:23;;;;;;;3.85;2.70;;;;;;;21.78;46.88;96833.09;6249012;23;20099;-78
2023/05/05 08:45:51;;;;;;;3.15;2.85;;;;;;;21.71;47.97;96835.94;6245538;23;20511;-78
2023/05/05 08:48:20;;;;;;;3.45;2.70;;;;;;;21.59;47.47;96833.41;6245907;23;20099;-78
2023/05/05 08:50:51;;;;;;;6.10;3.30;;;;;;;21.54;48.25;96833.34;6245278;23;20024;-77
2023/05/05 08:53:33;;;;;;;4.15;3.20;;;;;;;21.54;48.59;96841.31;6245784;23;20027;-79
2023/05/05 08:56:02;;;;;;;8.23;5.22;;;;;;;21.53;48.68;96833.56;6247587;23;20016;-79
2023/05/05 08:58:31;;;;;;;8.93;4.40;;;;;;;21.53;49.37;96849.50;6247312;23;20208;-79
2023/05/05 09:01:00;;;;;;;3.30;2.80;;;;;;;21.55;50.81;96842.09;6247997;23;20020;-78
2023/05/05 09:03:29;;;;;;;3.38;3.13;;;;;;;21.56;49.30;96843.72;6246046;23;20024;-78
2023/05/05 09:05:58;;;;;;;4.60;2.97;;;;;;;21.53;50.14;96847.66;6246834;23;20462;-78
2023/05/05 09:08:26;;;;;;;4.57;3.00;;;;;;;21.48;49.86;96854.75;6247516;23;20361;-79
2023/05/05 09:10:55;;;;;;;4.38;3.20;;;;;;;21.33;49.22;96847.34;6246347;23;20063;-78
2023/05/05 09:13:23;;;;;;;6.03;3.10;;;;;;;21.27;50.18;96861.59;6245256;23;20039;-79
2023/05/05 09:15:50;;;;;;;7.93;3.47;;;;;;;21.21;50.53;96855.41;6245591;23;20048;-79
2023/05/05 09:18:18;;;;;;;8.25;3.28;;;;;;;21.13;50.36;96851.31;6246197;23;20020;-79
2023/05/05 09:20:47;;;;;;;4.55;2.25;;;;;;;21.11;52.21;96856.06;6244805;23;20030;-79
2023/05/05 09:23:17;;;;;;;3.45;2.22;;;;;;;21.11;50.09;96857.91;6244690;23;20024;-79
2023/05/05 09:25:47;;;;;;;2.90;2.47;;;;;;;21.08;51.31;96859.22;6244990;23;20469;-78
2023/05/05 09:28:17;;;;;;;3.03;2.75;;;;;;;21.05;50.71;96853.56;6245326;23;20099;-78
2023/05/05 09:30:46;;;;;;;6.75;3.25;;;;;;;21.02;49.91;96846.91;6245165;23;20024;-79
2023/05/05 09:33:14;;;;;;;4.90;3.08;;;;;;;21.02;50.65;96848.75;6244579;23;20066;-79
2023/05/05 09:35:51;;;;;;;3.40;3.10;;;;;;;21.05;52.07;96854.38;6245266;23;20023;-78
2023/05/05 09:38:19;;;;;;;3.35;2.72;;;;;;;21.06;51.27;96849.88;6245530;23;20020;-78
2023/05/05 09:40:48;;;;;;;2.72;2.53;;;;;;;21.06;50.79;96855.19;6245149;23;20016;-79
2023/05/05 09:43:17;;;;;;;3.47;2.45;;;;;;;21.04;50.50;96844.03;6244832;23;20107;-78
2023/05/05 09:45:45;;;;;;;3.33;2.60;;;;;;;21.05;51.46;96848.25;6244618;23;20036;-78
2023/05/05 09:48:26;;;;;;;5.65;3.03;;;;;;;21.03;50.86;96853.00;6245020;23;20028;-78
2023/05/05 09:50:56;;;;;;;4.00;2.75;;;;;;;21.04;51.05;96857.28;6245075;23;20020;-79
2023/05/05 09:53:24;;;;;;;3.28;2.97;;;;;;;21.02;51.76;96851.41;6244519;23;20020;-77
2023/05/05 09:55:55;;;;;;;3.70;3.25;;;;;;;20.97;51.69;96847.63;6244503;23;20016;-77
2023/05/05 09:58:24;;;;;;;3.40;2.83;;;;;;;20.95;51.55;96849.72;6245022;23;20016;-77
2023/05/05 10:00:52;;;;;;;7.18;3.72;;;;;;;20.90;51.38;96852.31;6245539;23;20103;-79
2023/05/05 10:03:20;;;;;;;7.75;3.22;;;;;;;20.81;52.57;96850.28;6244465;23;20031;-78
2023/05/05 10:05:50;;;;;;;4.60;3.05;;;;;;;20.72;52.39;96855.97;6244794;23;20020;-79
2023/05/05 10:08:21;;;;;;;6.43;3.53;;;;;;;20.66;51.87;96861.44;6245433;23;20052;-78
2023/05/05 10:10:55;;;;;;;4.25;3.35;;;;;;;20.58;53.01;96860.78;6244994;23;20078;-78
2023/05/05 10:13:24;;;;;;;3.92;3.60;;;;;;;20.54;54.02;96864.13;6244675;23;20058;-78
2023/05/05 10:15:53;;;;;;;4.25;3.30;;;;;;;20.47;54.06;96864.28;6244718;23;20122;-79
2023/05/05 10:18:22;;;;;;;4.82;3.63;;;;;;;20.41;55.25;96861.78;6244916;23;20024;-78
2023/05/05 10:20:56;;;;;;;6.85;3.70;;;;;;;20.38;55.86;96865.72;6243985;23;20043;-79
2023/05/05 10:23:31;;;;;;;7.13;3.92;;;;;;;20.32;56.46;96854.19;6244507;23;20020;-79
2023/05/05 10:26:02;;;;;;;4.95;3.72;;;;;;;20.28;56.83;96857.56;6244463;23;20104;-79
2023/05/05 10:28:33;;;;;;;4.45;3.97;;;;;;;20.22;57.00;96853.22;6244823;23;20020;-79
2023/05/05 10:31:02;;;;;;;50.97;31.38;;;;;;;20.16;57.66;96847.84;6244485;23;20095;-79
2023/05/05 10:33:52;;;;;;;7.15;5.47;;;;;;;20.12;57.87;96845.91;6244179;23;20024;-78
2023/05/05 10:36:20;;;;;;;5.63;4.05;;;;;;;20.05;58.09;96839.91;6244753;23;20070;-79
2023/05/05 10:38:50;;;;;;;5.38;3.90;;;;;;;20.00;58.55;96837.97;6244274;23;20024;-79
2023/05/05 10:41:19;;;;;;;7.72;3.50;;;;;;;19.96;58.78;96840.31;6244586;23;20055;-79
2023/05/05 10:43:47;;;;;;;4.70;3.72;;;;;;;19.92;58.82;96835.72;6244487;23;20027;-79
2023/05/05 10:46:14;;;;;;;5.05;4.15;;;;;;;19.85;59.74;96829.75;6244454;23;20023;-79
2023/05/05 10:48:49;;;;;;;6.43;3.92;;;;;;;19.78;60.63;96831.72;6244816;23;20024;-78
2023/05/05 10:51:26;;;;;;;5.57;4.50;;;;;;;19.70;60.49;96823.13;6244379;23;20465;-78
2023/05/05 10:54:13;;;;;;;5.30;4.43;;;;;;;19.63;61.48;96824.25;6244513;23;20396;-78
2023/05/05 10:56:42;;;;;;;4.85;3.88;;;;;;;19.58;61.15;96819.66;6244813;23;20016;-79
2023/05/05 10:59:42;;;;;;;8.07;4.55;;;;;;;19.54;61.45;96816.66;6244625;23;20054;-79
2023/05/05 11:02:20;;;;;;;5.13;4.63;;;;;;;19.50;61.75;96818.19;6245204;23;20024;-79
2023/05/05 11:05:16;;;;;;;4.22;3.83;;;;;;;19.49;61.51;96826.34;6244501;23;20405;-79
2023/05/05 11:07:44;;;;;;;4.00;3.70;;;;;;;19.46;61.69;96821.50;6244445;23;20024;-79
2023/05/05 11:10:15;;;;;;;5.15;4.65;;;;;;;19.42;60.93;96818.53;6244930;23;20020;-78
2023/05/05 11:13:17;;;;;;;4.05;3.65;;;;;;;19.42;61.78;96825.69;6244242;23;20024;-78
2023/05/05 11:15:45;;;;;;;5.75;4.68;;;;;;;19.41;61.63;96818.78;6244520;23;20020;-79
2023/05/05 11:18:37;;;;;;;4.78;4.00;;;;;;;19.41;62.97;96813.47;6244819;23;20107;-78
2023/05/05 11:21:16;;;;;;;5.15;4.53;;;;;;;19.45;63.58;96810.13;6245613;23;20031;-78
2023/05/05 11:23:46;;;;;;;4.88;4.30;;;;;;;19.50;62.65;96812.06;6246456;23;20085;-78
2023/05/05 11:26:16;;;;;;;9.02;5.45;;;;;;;19.55;62.22;96804.25;6246346;23;20020;-78
2023/05/05 11:28:58;;;;;;;5.13;4.25;;;;;;;19.62;62.91;96790.91;6245875;23;20470;-79
2023/05/05 11:31:26;;;;;;;11.32;4.90;;;;;;;19.70;61.77;96786.06;6246673;23;20456;-78
2023/05/05 11:33:53;;;;;;;6.50;5.05;;;;;;;19.82;62.04;96787.88;6245620;23;20139;-78
2023/05/05 11:36:39;;;;;;;5.07;4.13;;;;;;;19.94;61.13;96793.91;6245488;23;20350;-78
2023/05/05 11:39:09;;;;;;;6.93;4.53;;;;;;;20.07;61.85;96784.88;6246128;23;20035;-78
2023/05/05 11:42:04;;;;;;;8.60;6.80;;;;;;;20.24;62.06;96780.41;6245944;23;20474;-78
2023/05/05 11:44:37;;;;;;;5.75;4.65;;;;;;;20.39;62.63;96777.22;6245872;23;20078;-78
2023/05/05 11:47:28;;;;;;;6.75;5.65;;;;;;;20.60;62.68;96772.28;6246132;23;20017;-78
2023/05/05 11:49:56;;;;;;;6.57;4.80;;;;;;;20.74;60.55;96776.22;6246162;23;20020;-78
2023/05/05 11:52:28;;;;;;;7.15;5.85;;;;;;;20.88;61.37;96774.84;6245875;23;20024;-78
2023/05/05 11:55:01;;;;;;;10.32;5.85;;;;;;;21.04;61.09;96772.41;6246100;23;20320;-78
2023/05/05 11:57:30;;;;;;;12.35;6.05;;;;;;;21.15;58.57;96769.66;6246073;23;20433;-78
2023/05/05 12:00:00;;;;;;;8.93;5.32;;;;;;;21.25;58.13;96768.16;6245495;23;20058;-78
2023/05/05 12:02:29;;;;;;;7.28;4.82;;;;;;;21.32;56.62;96761.66;6246063;23;20074;-78
2023/05/05 12:04:57;;;;;;;9.38;5.05;;;;;;;21.43;56.85;96764.44;6245568;23;20063;-78
2023/05/05 12:07:27;;;;;;;8.77;4.72;;;;;;;21.51;56.45;96764.81;6246043;23;20404;-78
2023/05/05 12:09:54;;;;;;;5.82;4.20;;;;;;;21.61;55.85;96761.50;6245774;23;20020;-79
2023/05/05 12:12:35;;;;;;;8.70;4.68;;;;;;;21.69;53.50;96761.06;6245948;23;20127;-78
2023/05/05 12:15:04;;;;;;;12.15;5.60;;;;;;;21.78;53.15;96756.09;6245867;23;20020;-78
2023/05/05 12:17:41;;;;;;;6.95;4.25;;;;;;;21.89;52.81;96749.06;6245574;23;20103;-78
2023/05/05 12:20:10;;;;;;;8.05;4.43;;;;;;;22.01;52.29;96749.69;6245331;23;20161;-79
2023/05/05 12:22:39;;;;;;;4.45;3.20;;;;;;;22.11;50.82;96744.47;6245625;23;20426;-78
2023/05/05 12:25:07;;;;;;;4.75;1.98;;;;;;;22.19;49.63;96741.38;6245644;23;20090;-78
2023/05/05 12:27:37;;;;;;;12.00;6.72;;;;;;;22.21;46.78;96747.22;6245845;23;20024;-78
2023/05/05 12:30:14;;;;;;;6.53;3.60;;;;;;;22.27;46.69;96741.97;6245687;23;20027;-78
2023/05/05 12:32:42;;;;;;;2.40;1.27;;;;;;;22.31;46.33;96738.56;6245815;23;20020;-79
2023/05/05 12:35:12;;;;;;;2.30;1.20;;;;;;;22.38;46.11;96735.69;6245702;23;20024;-78
2023/05/05 12:37:40;;;;;;;1.45;0.90;;;;;;;22.44;46.39;96736.53;6245647;23;20039;-78
2023/05/05 12:40:44;;;;;;;2.20;0.93;;;;;;;22.49;43.70;96729.41;6249116;23;20085;-78
2023/05/05 12:43:25;;;;;;;3.10;1.00;;;;;;;22.54;44.64;96721.47;6254915;23;20026;-79
2023/05/05 12:46:00;;;;;;;1.10;1.10;;;;;;;22.62;45.96;96728.16;6255005;23;20024;-78
2023/05/05 12:48:28;;;;;;;1.67;1.17;;;;;;;22.68;46.00;96729.81;6255576;23;20034;-78
2023/05/05 12:51:13;;;;;;;0.80;0.57;;;;;;;22.74;44.04;96720.81;6255939;23;20462;-79
2023/05/05 12:53:40;;;;;;;0.77;0.60;;;;;;;22.76;42.86;96717.88;6254820;23;20031;-79
2023/05/05 12:56:29;;;;;;;0.65;0.60;;;;;;;22.79;43.75;96717.38;6253788;23;20024;-79
2023/05/05 12:58:59;;;;;;;2.97;1.25;;;;;;;22.84;42.35;96714.75;6248195;23;20020;-79